Time;durP1;ratioP1;P1;durP2;ratioP2;P2;SDS_P1;SDS_P2;PMS_P1;PMS_P2;Temp;Humidity;BMP_temperature;BMP_pressure;BME280_temperature;BME280_humidity;BME280_pressure;Samples;Min_cycle;Max_cycle;Signal;HPM_P1;HPM_P2
2022/08/20 00:00:57;;;;;;;1.23;1.23;;;;;;;22.87;72.68;100068.03;4984888;28;20457;-52
2022/08/20 00:03:34;;;;;;;0.90;0.70;;;;;;;22.79;73.24;100066.94;4969257;28;20938;-52
2022/08/20 00:06:08;;;;;;;0.80;0.57;;;;;;;22.73;72.96;100074.56;4972476;28;20448;-52
2022/08/20 00:08:36;;;;;;;1.67;0.73;;;;;;;22.71;73.23;100073.84;4967514;28;20479;-52
2022/08/20 00:11:06;;;;;;;0.90;0.80;;;;;;;22.67;73.47;100069.69;4975918;28;20462;-52
2022/08/20 00:13:42;;;;;;;1.20;0.90;;;;;;;22.74;73.31;100073.59;4977017;28;20929;-52
2022/08/20 00:16:11;;;;;;;3.90;0.80;;;;;;;22.80;73.17;100079.50;4964009;28;20486;-52
2022/08/20 00:18:38;;;;;;;11.83;1.80;;;;;;;22.81;73.44;100083.94;4976428;28;20508;-52
2022/08/20 00:21:07;;;;;;;0.67;0.60;;;;;;;22.80;73.52;100083.09;4970653;28;20487;-52
2022/08/20 00:23:38;;;;;;;0.80;0.77;;;;;;;22.91;73.65;100082.22;4963343;28;20899;-51
2022/08/20 00:26:06;;;;;;;0.83;0.83;;;;;;;23.04;73.30;100083.78;4964777;28;20447;-51
2022/08/20 00:28:33;;;;;;;1.10;0.80;;;;;;;23.02;73.80;100085.75;4963724;28;21035;-52
2022/08/20 00:31:04;;;;;;;0.70;0.50;;;;;;;23.09;73.66;100087.97;4976103;28;20465;-52
2022/08/20 00:33:30;;;;;;;2.20;0.83;;;;;;;23.39;72.53;100084.50;4976728;28;20450;-52
2022/08/20 00:35:58;;;;;;;0.87;0.67;;;;;;;23.39;72.69;100085.34;4976661;28;20457;-52
2022/08/20 00:38:24;;;;;;;0.60;0.50;;;;;;;23.46;72.17;100083.84;4963430;28;21071;-53
2022/08/20 00:40:55;;;;;;;0.60;0.40;;;;;;;23.55;71.98;100087.63;4968337;28;20459;-52
2022/08/20 00:43:37;;;;;;;1.30;0.63;;;;;;;23.50;72.68;100085.31;4972044;28;20802;-52
2022/08/20 00:46:14;;;;;;;2.17;0.90;;;;;;;23.44;72.75;100085.84;4976543;28;20450;-52
2022/08/20 00:48:43;;;;;;;1.60;0.57;;;;;;;23.61;72.20;100089.84;4963520;28;20476;-52
2022/08/20 00:51:34;;;;;;;0.90;0.50;;;;;;;23.50;72.48;100087.16;4963713;28;20462;-52
2022/08/20 00:54:17;;;;;;;0.60;0.50;;;;;;;23.56;71.71;100092.91;4966131;28;20911;-52
2022/08/20 00:56:48;;;;;;;0.93;0.70;;;;;;;23.50;72.68;100089.88;4963349;28;20494;-52
2022/08/20 00:59:21;;;;;;;0.83;0.60;;;;;;;23.51;72.38;100094.31;4975915;28;20484;-52
2022/08/20 01:01:49;;;;;;;1.00;0.60;;;;;;;23.45;73.41;100094.84;4963922;28;20451;-52
2022/08/20 01:04:23;;;;;;;1.37;0.60;;;;;;;23.51;72.75;100100.59;4976043;28;20482;-53
2022/08/20 01:06:50;;;;;;;0.67;0.43;;;;;;;23.35;73.43;100095.63;4977117;28;20497;-52
2022/08/20 01:09:17;;;;;;;0.60;0.53;;;;;;;23.39;73.77;100098.06;4973228;28;20474;-52
2022/08/20 01:12:06;;;;;;;0.60;0.40;;;;;;;23.35;73.85;100090.19;4968253;28;20453;-52
2022/08/20 01:17:04;;;;;;;0.60;0.50;;;;;;;23.43;73.93;100096.81;4976346;28;20498;-52
2022/08/20 01:19:37;;;;;;;0.80;0.70;;;;;;;23.46;74.54;100097.44;4962213;28;20482;-51
2022/08/20 01:23:25;;;;;;;0.80;0.60;;;;;;;23.69;74.02;100100.91;4970655;28;20468;-51
2022/08/20 01:25:00;;;;;;;0.73;0.60;;;;;;;23.64;74.46;100095.88;4966667;28;20462;-52
2022/08/20 01:27:27;;;;;;;0.63;0.43;;;;;;;23.54;74.94;100103.03;4970731;28;21018;-51
2022/08/20 01:29:56;;;;;;;0.80;0.70;;;;;;;23.50;75.38;100098.88;4967704;28;20494;-51
2022/08/20 01:32:23;;;;;;;1.10;0.90;;;;;;;23.64;75.07;100103.16;4962683;28;20461;-51
2022/08/20 01:34:49;;;;;;;0.60;0.50;;;;;;;23.57;75.27;100110.06;4975592;28;20454;-51
2022/08/20 01:37:16;;;;;;;0.70;0.47;;;;;;;23.46;75.54;100104.72;4969229;28;20587;-52
2022/08/20 01:39:42;;;;;;;0.63;0.60;;;;;;;23.34;75.93;100114.75;4963108;28;20834;-52
2022/08/20 01:42:36;;;;;;;2.60;0.80;;;;;;;23.37;75.89;100114.47;4974203;28;20883;-52
2022/08/20 01:45:22;;;;;;;0.80;0.63;;;;;;;23.28;76.29;100113.38;4970401;28;20979;-53
2022/08/20 01:47:53;;;;;;;0.60;0.50;;;;;;;23.33;76.35;100111.16;4968009;28;20545;-52
2022/08/20 01:50:24;;;;;;;0.77;0.60;;;;;;;23.18;76.92;100111.59;4969441;28;20459;-52
2022/08/20 01:52:56;;;;;;;0.70;0.60;;;;;;;23.10;77.39;100114.09;4969641;28;20538;-52
2022/08/20 01:55:22;;;;;;;0.70;0.50;;;;;;;23.10;77.42;100109.53;4963024;28;20457;-52
2022/08/20 01:57:49;;;;;;;0.87;0.60;;;;;;;22.80;78.36;100106.63;4974776;28;20494;-51
2022/08/20 02:00:18;;;;;;;0.70;0.53;;;;;;;22.70;78.64;100112.78;4980689;28;20449;-52
2022/08/20 02:02:45;;;;;;;0.60;0.50;;;;;;;22.71;78.62;100106.38;4974656;28;20541;-51
2022/08/20 02:05:12;;;;;;;1.27;0.70;;;;;;;22.73;78.39;100117.09;4975200;28;20481;-52
2022/08/20 02:07:38;;;;;;;0.60;0.40;;;;;;;22.67;78.91;100115.75;4974856;28;20482;-52
2022/08/20 02:10:07;;;;;;;2.70;0.57;;;;;;;22.55;79.61;100114.03;4974927;28;20979;-51
2022/08/20 02:12:34;;;;;;;0.90;0.63;;;;;;;22.45;79.83;100116.63;4969444;28;20956;-52
2022/08/20 02:15:00;;;;;;;0.73;0.50;;;;;;;22.48;79.94;100118.25;4964259;28;20450;-51
2022/08/20 02:17:27;;;;;;;1.87;0.57;;;;;;;22.42;80.02;100118.72;4971860;28;20505;-51
2022/08/20 02:19:58;;;;;;;0.80;0.50;;;;;;;22.33;80.61;100117.59;4964160;28;20450;-52
2022/08/20 02:22:36;;;;;;;1.07;0.70;;;;;;;22.31;80.70;100124.13;4971961;28;20464;-52
2022/08/20 02:25:05;;;;;;;0.70;0.50;;;;;;;22.28;80.26;100132.50;4965312;28;20828;-52
2022/08/20 02:27:31;;;;;;;0.80;0.50;;;;;;;22.29;80.56;100129.69;4974480;28;20478;-51
2022/08/20 02:29:58;;;;;;;0.60;0.53;;;;;;;22.34;80.27;100142.84;4975336;28;20489;-52
2022/08/20 02:32:25;;;;;;;0.90;0.50;;;;;;;22.25;80.81;100140.88;4974778;28;20451;-52
2022/08/20 02:35:02;;;;;;;0.70;0.40;;;;;;;22.19;80.98;100142.22;4966625;28;20886;-52
2022/08/20 02:37:29;;;;;;;0.70;0.43;;;;;;;22.20;80.88;100143.06;4967937;28;20501;-52
2022/08/20 02:39:56;;;;;;;1.37;0.70;;;;;;;22.34;80.74;100130.19;4967879;28;20549;-52
2022/08/20 02:42:23;;;;;;;0.60;0.40;;;;;;;22.30;80.79;100144.94;4972732;28;20451;-51
2022/08/20 02:44:49;;;;;;;1.10;0.70;;;;;;;22.28;81.08;100140.63;4961881;28;20456;-52
2022/08/20 02:47:16;;;;;;;0.70;0.50;;;;;;;22.24;82.29;100139.16;4966176;28;20979;-52
2022/08/20 02:49:42;;;;;;;1.93;1.03;;;;;;;22.37;82.14;100131.78;4967966;28;20501;-52
2022/08/20 02:52:09;;;;;;;0.80;0.50;;;;;;;22.27;83.55;100136.19;4967841;28;20459;-52
2022/08/20 02:54:35;;;;;;;0.73;0.53;;;;;;;22.40;82.97;100142.38;4967385;28;20450;-52
2022/08/20 02:57:03;;;;;;;0.60;0.40;;;;;;;22.45;84.45;100149.13;4973822;28;20498;-52
2022/08/20 02:59:29;;;;;;;0.70;0.50;;;;;;;22.49;85.53;100144.34;4964750;28;20471;-52
2022/08/20 03:01:56;;;;;;;1.57;0.77;;;;;;;22.47;87.02;100144.44;4976155;28;20477;-52
2022/08/20 03:04:30;;;;;;;0.60;0.40;;;;;;;22.35;89.07;100134.63;4973596;28;20446;-52
2022/08/20 03:06:57;;;;;;;1.47;0.50;;;;;;;22.35;89.89;100131.91;4964119;28;20952;-52
2022/08/20 03:09:24;;;;;;;0.80;0.50;;;;;;;22.42;92.66;100130.41;4970361;28;20486;-52
2022/08/20 03:11:51;;;;;;;0.70;0.53;;;;;;;22.38;94.58;100123.53;4964179;28;20458;-53
2022/08/20 03:14:18;;;;;;;0.60;0.40;;;;;;;22.34;95.32;100127.47;4973845;28;20450;-52
2022/08/20 03:16:44;;;;;;;0.60;0.40;;;;;;;22.30;96.68;100125.97;4969442;28;20496;-52
2022/08/20 03:19:12;;;;;;;0.67;0.47;;;;;;;22.16;97.54;100127.06;4973358;28;21058;-52
2022/08/20 03:21:39;;;;;;;0.60;0.40;;;;;;;22.11;97.53;100134.72;4973614;28;20888;-53
2022/08/20 03:24:06;;;;;;;0.60;0.60;;;;;;;22.01;96.71;100136.38;4960535;28;20541;-52
2022/08/20 03:26:32;;;;;;;0.50;0.30;;;;;;;21.90;97.56;100139.06;4974367;28;20827;-52
2022/08/20 03:28:59;;;;;;;0.60;0.50;;;;;;;21.87;97.52;100136.59;4969549;28;20471;-52
2022/08/20 03:31:25;;;;;;;0.60;0.50;;;;;;;21.80;97.24;100138.94;4956359;28;20462;-52
2022/08/20 03:33:51;;;;;;;0.60;0.50;;;;;;;21.83;97.99;100143.25;4971095;28;20468;-52
2022/08/20 03:36:23;;;;;;;0.70;0.40;;;;;;;21.91;97.94;100137.22;4972558;28;20466;-52
2022/08/20 03:38:59;;;;;;;0.60;0.40;;;;;;;21.89;98.01;100131.94;4973265;28;20933;-52
2022/08/20 03:41:27;;;;;;;1.33;1.00;;;;;;;21.94;97.36;100124.31;4973267;28;20450;-52
2022/08/20 03:43:53;;;;;;;0.50;0.40;;;;;;;22.05;98.66;100132.47;4960942;28;20458;-52
2022/08/20 03:46:20;;;;;;;0.70;0.60;;;;;;;22.12;97.43;100127.44;4973419;28;20465;-52
2022/08/20 03:48:50;;;;;;;0.60;0.40;;;;;;;22.02;97.57;100134.53;4973075;28;20987;-53
2022/08/20 03:51:27;;;;;;;0.50;0.30;;;;;;;22.14;95.69;100131.75;4973566;28;20524;-52
2022/08/20 03:53:54;;;;;;;0.60;0.40;;;;;;;22.21;94.58;100131.28;4973593;28;20537;-52
2022/08/20 03:56:20;;;;;;;0.70;0.50;;;;;;;22.17;96.01;100126.09;4970185;28;20968;-52
2022/08/20 03:58:47;;;;;;;1.63;0.80;;;;;;;22.18;95.42;100130.53;4962779;28;20922;-52
2022/08/20 04:01:13;;;;;;;0.50;0.30;;;;;;;22.13;96.20;100126.47;4986151;28;20842;-53
2022/08/20 04:04:00;;;;;;;0.60;0.30;;;;;;;22.02;95.79;100129.13;4965924;28;20987;-53
2022/08/20 04:06:28;;;;;;;0.77;0.53;;;;;;;22.08;95.64;100137.66;4970338;28;20486;-53
2022/08/20 04:08:55;;;;;;;0.60;0.60;;;;;;;22.11;96.12;100140.13;4973301;28;20502;-53
2022/08/20 04:11:23;;;;;;;4.27;0.73;;;;;;;22.04;96.09;100133.44;4960035;28;20453;-52
2022/08/20 04:13:49;;;;;;;0.93;0.70;;;;;;;22.27;95.76;100136.19;4960548;28;20539;-51
2022/08/20 04:16:16;;;;;;;1.00;0.87;;;;;;;22.06;96.18;100139.59;4966668;28;20456;-53
2022/08/20 04:18:46;;;;;;;4.10;0.60;;;;;;;22.35;95.89;100136.47;4966422;28;20577;-53
2022/08/20 04:21:31;;;;;;;6.83;1.13;;;;;;;22.27;95.39;100145.19;4973098;28;20942;-52
2022/08/20 04:24:01;;;;;;;0.90;0.70;;;;;;;22.30;95.03;100138.66;4970270;28;20514;-53
2022/08/20 04:26:28;;;;;;;0.70;0.60;;;;;;;22.44;94.14;100147.41;4962616;28;20453;-52
2022/08/20 04:28:54;;;;;;;1.03;0.93;;;;;;;22.17;95.18;100144.19;4972777;28;20475;-53
2022/08/20 04:31:23;;;;;;;0.90;0.80;;;;;;;22.15;95.41;100151.56;4965721;28;20459;-52
2022/08/20 04:33:51;;;;;;;0.70;0.70;;;;;;;22.23;95.08;100150.97;4960196;28;20465;-53
2022/08/20 04:36:17;;;;;;;0.67;0.60;;;;;;;22.16;95.71;100156.00;4973019;28;20480;-53
2022/08/20 04:38:43;;;;;;;0.80;0.50;;;;;;;22.05;95.75;100156.84;4959655;28;20501;-51
2022/08/20 04:41:18;;;;;;;1.20;0.77;;;;;;;22.12;96.05;100160.81;4972754;28;20501;-53
2022/08/20 04:43:50;;;;;;;0.70;0.50;;;;;;;22.31;95.66;100162.03;4972800;28;20553;-52
2022/08/20 04:46:16;;;;;;;0.70;0.70;;;;;;;22.36;95.04;100158.00;4963584;28;21027;-53
2022/08/20 04:48:43;;;;;;;0.60;0.53;;;;;;;22.31;94.82;100162.03;4970698;28;20470;-53
2022/08/20 04:51:17;;;;;;;0.63;0.60;;;;;;;22.20;95.77;100162.03;4975160;28;20446;-54
2022/08/20 04:53:44;;;;;;;0.80;0.60;;;;;;;22.22;95.64;100160.94;4975179;28;20462;-54
2022/08/20 04:56:22;;;;;;;5.23;0.90;;;;;;;22.32;95.20;100161.06;4966476;28;20821;-54
2022/08/20 04:58:51;;;;;;;0.80;0.70;;;;;;;22.22;95.66;100166.38;4975981;28;20528;-53
2022/08/20 05:01:17;;;;;;;1.10;0.53;;;;;;;22.21;95.98;100158.38;4988921;28;20475;-53
2022/08/20 05:03:46;;;;;;;9.30;0.90;;;;;;;22.16;96.43;100165.00;4966243;28;20821;-54
2022/08/20 05:06:13;;;;;;;1.43;1.33;;;;;;;22.13;96.65;100157.13;4970836;28;20970;-53
2022/08/20 05:08:39;;;;;;;0.90;0.70;;;;;;;22.12;96.88;100163.50;4976052;28;20474;-53
2022/08/20 05:11:08;;;;;;;0.93;0.83;;;;;;;22.10;97.15;100157.38;4967166;28;20458;-54
2022/08/20 05:13:54;;;;;;;1.10;1.00;;;;;;;22.41;96.36;100160.34;4976115;28;20465;-54
2022/08/20 05:16:22;;;;;;;1.53;1.43;;;;;;;22.31;95.86;100157.50;4972607;28;20461;-53
2022/08/20 05:18:50;;;;;;;0.80;0.70;;;;;;;22.29;96.16;100162.19;4962517;28;20522;-54
2022/08/20 05:21:19;;;;;;;1.27;1.17;;;;;;;22.32;95.83;100166.47;4975758;28;20489;-54
2022/08/20 05:23:45;;;;;;;2.23;1.67;;;;;;;22.37;95.76;100162.44;4975530;28;20463;-54
2022/08/20 05:26:14;;;;;;;1.20;1.10;;;;;;;22.34;96.28;100173.53;4966367;28;20525;-53
2022/08/20 05:28:41;;;;;;;0.77;0.70;;;;;;;22.57;94.51;100173.50;4970937;28;21010;-54
2022/08/20 05:31:28;;;;;;;1.83;1.10;;;;;;;22.54;94.88;100181.91;4975550;28;20454;-53
2022/08/20 05:34:08;;;;;;;1.13;1.03;;;;;;;22.44;95.94;100181.75;4966921;28;20445;-54
2022/08/20 05:36:39;;;;;;;1.67;1.57;;;;;;;22.45;95.56;100178.94;4973265;28;20465;-54
2022/08/20 05:39:07;;;;;;;1.97;1.87;;;;;;;22.58;94.67;100186.94;4961010;28;20525;-54
2022/08/20 05:41:34;;;;;;;1.10;0.90;;;;;;;22.56;94.87;100183.50;4968118;28;20875;-53
2022/08/20 05:44:00;;;;;;;1.73;1.27;;;;;;;22.63;94.87;100192.88;4971959;28;20774;-54
2022/08/20 05:46:29;;;;;;;1.80;1.57;;;;;;;22.54;95.16;100190.88;4969982;28;20461;-54
2022/08/20 05:48:57;;;;;;;0.93;0.83;;;;;;;22.47;96.35;100190.50;4967312;28;21007;-53
2022/08/20 05:51:25;;;;;;;3.33;1.20;;;;;;;22.50;94.94;100197.53;4970587;28;20826;-54
2022/08/20 05:53:51;;;;;;;2.90;1.80;;;;;;;22.52;95.09;100198.28;4972328;28;20454;-54
2022/08/20 05:56:18;;;;;;;2.10;2.00;;;;;;;22.56;95.35;100199.75;4967664;28;20469;-55
2022/08/20 05:58:51;;;;;;;16.87;2.13;;;;;;;22.55;95.54;100198.03;4968624;28;20580;-55
2022/08/20 06:01:18;;;;;;;1.37;0.90;;;;;;;22.56;95.95;100198.88;4977514;28;20832;-53
2022/08/20 06:06:34;;;;;;;1.87;1.77;;;;;;;22.57;94.89;100209.59;4971943;28;20469;-54
2022/08/20 06:09:16;;;;;;;0.97;0.90;;;;;;;22.71;94.79;100212.06;4973306;28;20470;-53
2022/08/20 06:11:58;;;;;;;2.97;1.70;;;;;;;22.92;93.43;100208.66;4966080;28;20798;-54
2022/08/20 06:14:25;;;;;;;0.90;0.90;;;;;;;23.18;92.35;100209.25;4969817;28;20474;-54
2022/08/20 06:16:51;;;;;;;0.80;0.73;;;;;;;23.10;92.78;100207.16;4972311;28;20954;-54
2022/08/20 06:19:24;;;;;;;2.03;1.33;;;;;;;22.91;93.50;100215.06;4961503;28;20589;-55
2022/08/20 06:21:51;;;;;;;2.43;1.87;;;;;;;22.84;93.35;100211.97;4974472;28;20513;-54
2022/08/20 06:24:20;;;;;;;1.63;1.53;;;;;;;22.87;93.71;100205.44;4971588;28;20486;-54
2022/08/20 06:26:46;;;;;;;1.37;1.20;;;;;;;22.96;93.17;100211.00;4968667;28;20458;-55
2022/08/20 06:29:14;;;;;;;3.07;1.20;;;;;;;23.15;93.24;100209.47;4958675;28;20479;-55
2022/08/20 06:31:41;;;;;;;1.07;0.90;;;;;;;23.03;92.71;100212.22;4955730;28;20466;-54
2022/08/20 06:34:07;;;;;;;1.37;1.27;;;;;;;23.09;92.05;100213.56;4973530;28;20953;-54
2022/08/20 06:36:33;;;;;;;1.40;1.30;;;;;;;23.38;90.69;100204.88;4965208;28;20452;-54
2022/08/20 06:39:00;;;;;;;1.50;1.40;;;;;;;23.47;90.23;100210.41;4967490;28;20499;-55
2022/08/20 06:41:26;;;;;;;1.20;1.10;;;;;;;23.52;89.64;100210.88;4971118;28;20454;-55
2022/08/20 06:44:03;;;;;;;1.17;1.07;;;;;;;23.69;88.86;100198.63;4974168;28;20970;-54
2022/08/20 06:46:31;;;;;;;0.77;0.73;;;;;;;23.85;87.86;100209.91;4960648;28;20948;-54
2022/08/20 06:48:57;;;;;;;1.37;1.27;;;;;;;23.70;87.51;100211.19;4973381;28;20553;-55
2022/08/20 06:51:24;;;;;;;1.00;0.90;;;;;;;23.57;88.25;100199.63;4961299;28;20458;-54
2022/08/20 06:53:50;;;;;;;1.07;0.80;;;;;;;23.53;88.59;100200.88;4967537;28;20459;-54
2022/08/20 06:56:17;;;;;;;1.20;1.00;;;;;;;23.55;88.24;100201.59;4967816;28;20543;-54
2022/08/20 06:58:43;;;;;;;0.93;0.83;;;;;;;23.42;88.24;100204.47;4970788;28;20494;-54
2022/08/20 07:01:11;;;;;;;0.80;0.80;;;;;;;23.48;88.05;100200.41;4975771;28;20457;-54
2022/08/20 07:03:39;;;;;;;1.70;1.30;;;;;;;23.61;87.67;100203.84;4965589;28;20483;-53
2022/08/20 07:06:20;;;;;;;1.80;1.03;;;;;;;23.74;86.75;100201.81;4970395;28;20497;-54
2022/08/20 07:08:47;;;;;;;1.23;1.10;;;;;;;23.77;86.75;100216.97;4961928;28;20475;-54
2022/08/20 07:11:13;;;;;;;4.57;1.33;;;;;;;23.84;86.42;100221.75;4973358;28;20545;-54
2022/08/20 07:13:40;;;;;;;1.30;1.13;;;;;;;23.94;85.60;100219.97;4973650;28;20454;-54
2022/08/20 07:16:07;;;;;;;1.07;0.97;;;;;;;23.90;86.17;100218.53;4960606;28;20970;-53
2022/08/20 07:18:33;;;;;;;28.93;1.77;;;;;;;24.14;83.89;100222.84;4973239;28;20532;-54
2022/08/20 07:21:00;;;;;;;1.70;1.60;;;;;;;24.16;84.42;100220.88;4960600;28;20456;-53
2022/08/20 07:23:27;;;;;;;1.83;1.13;;;;;;;24.30;84.05;100219.69;4969615;28;20462;-54
2022/08/20 07:25:54;;;;;;;0.77;0.70;;;;;;;24.30;83.54;100220.56;4972152;28;20463;-54
2022/08/20 07:28:23;;;;;;;2.37;0.80;;;;;;;24.28;83.44;100224.38;4961855;28;20993;-53
2022/08/20 07:33:40;;;;;;;0.90;0.73;;;;;;;24.17;83.30;100228.88;4970255;28;20544;-54
2022/08/20 07:36:07;;;;;;;0.80;0.60;;;;;;;24.20;82.16;100227.75;4972524;28;20458;-54
2022/08/20 07:38:35;;;;;;;0.93;0.70;;;;;;;24.20;82.57;100219.59;4971931;28;20593;-53
2022/08/20 07:41:08;;;;;;;1.40;1.30;;;;;;;24.52;81.96;100224.97;4973356;28;20459;-54
2022/08/20 07:43:35;;;;;;;0.70;0.60;;;;;;;24.47;81.22;100230.81;4960070;28;20451;-54
2022/08/20 07:46:07;;;;;;;1.27;0.57;;;;;;;24.65;80.49;100233.75;4973063;28;20460;-54
2022/08/20 07:48:38;;;;;;;0.60;0.53;;;;;;;24.67;79.88;100233.63;4961372;28;20471;-54
2022/08/20 07:51:07;;;;;;;0.87;0.83;;;;;;;24.47;80.74;100230.81;4973254;28;20450;-53
2022/08/20 07:53:37;;;;;;;0.80;0.73;;;;;;;24.72;79.40;100231.38;4968033;28;20474;-53
2022/08/20 07:56:06;;;;;;;1.33;0.90;;;;;;;24.68;78.29;100235.38;4968837;28;20458;-54
2022/08/20 07:58:35;;;;;;;0.83;0.63;;;;;;;24.80;76.64;100236.97;4969714;28;20495;-53
2022/08/20 08:01:04;;;;;;;0.70;0.60;;;;;;;25.01;75.63;100235.13;4985951;28;20463;-54
2022/08/20 08:03:31;;;;;;;0.70;0.50;;;;;;;25.12;74.95;100234.16;4965541;28;20546;-54
2022/08/20 08:06:14;;;;;;;8.50;0.50;;;;;;;25.18;74.86;100233.59;4971164;28;20477;-53
2022/08/20 08:08:54;;;;;;;1.43;0.70;;;;;;;25.36;73.65;100229.22;4973104;28;20478;-53
2022/08/20 08:11:21;;;;;;;1.63;1.33;;;;;;;25.40;72.16;100232.50;4972618;28;20455;-54
2022/08/20 08:13:48;;;;;;;0.70;0.40;;;;;;;25.69;71.71;100233.44;4972942;28;20454;-54
2022/08/20 08:16:14;;;;;;;0.83;0.70;;;;;;;25.96;69.22;100220.97;4960783;28;20462;-53
2022/08/20 08:18:47;;;;;;;0.60;0.40;;;;;;;26.16;69.49;100221.81;4959742;28;20499;-53
2022/08/20 08:21:15;;;;;;;0.70;0.40;;;;;;;26.08;69.74;100225.25;4973414;28;20453;-53
2022/08/20 08:23:43;;;;;;;0.60;0.43;;;;;;;26.08;68.53;100233.44;4972249;28;20542;-53
2022/08/20 08:26:13;;;;;;;0.50;0.40;;;;;;;25.80;66.38;100223.41;4959993;28;20459;-53
2022/08/20 08:28:44;;;;;;;0.70;0.40;;;;;;;25.98;65.19;100221.69;4973741;28;20537;-54
2022/08/20 08:31:11;;;;;;;5.10;1.23;;;;;;;26.08;64.88;100229.84;4976580;28;20975;-54
2022/08/20 08:33:39;;;;;;;1.07;0.80;;;;;;;26.10;65.36;100230.56;4970459;28;20529;-53
2022/08/20 08:36:11;;;;;;;0.60;0.40;;;;;;;26.52;64.90;100225.66;4976518;28;20520;-54
2022/08/20 08:38:41;;;;;;;0.60;0.60;;;;;;;26.85;62.54;100233.28;4976568;28;20871;-54
2022/08/20 08:41:30;;;;;;;0.50;0.30;;;;;;;26.73;62.64;100225.44;4976652;28;20460;-55
2022/08/20 08:44:13;;;;;;;0.60;0.40;;;;;;;26.41;63.43;100229.41;4965182;28;20947;-55
2022/08/20 08:46:47;;;;;;;0.50;0.30;;;;;;;26.43;62.03;100231.97;4963371;28;20451;-54
2022/08/20 08:49:17;;;;;;;0.50;0.30;;;;;;;26.50;61.47;100228.53;4976281;28;20983;-54
2022/08/20 08:51:48;;;;;;;0.67;0.50;;;;;;;26.78;58.88;100237.63;4970975;28;20465;-55
2022/08/20 08:54:19;;;;;;;0.60;0.40;;;;;;;26.80;58.74;100234.75;4969916;28;20450;-54
2022/08/20 08:56:47;;;;;;;0.67;0.43;;;;;;;26.91;59.69;100231.81;4976376;28;20454;-54
2022/08/20 08:59:17;;;;;;;1.03;0.50;;;;;;;26.95;59.76;100235.97;4975115;28;20498;-54
2022/08/20 09:01:47;;;;;;;0.63;0.40;;;;;;;27.20;59.80;100220.81;4987590;28;20460;-55
2022/08/20 09:04:29;;;;;;;0.60;0.30;;;;;;;27.50;59.89;100227.78;4963231;28;20459;-54
2022/08/20 09:06:56;;;;;;;0.50;0.30;;;;;;;27.60;57.82;100222.28;4966076;28;20545;-55
2022/08/20 09:09:31;;;;;;;7.73;0.40;;;;;;;27.54;58.63;100226.47;4972920;28;20995;-54
2022/08/20 09:12:08;;;;;;;0.60;0.43;;;;;;;27.63;58.16;100217.34;4967331;28;20454;-55
2022/08/20 09:14:35;;;;;;;0.50;0.30;;;;;;;27.66;57.81;100210.75;4976114;28;20453;-55
2022/08/20 09:17:03;;;;;;;6.13;0.57;;;;;;;27.57;58.51;100217.97;4963964;28;20455;-54
2022/08/20 09:19:30;;;;;;;0.50;0.30;;;;;;;27.57;58.65;100217.13;4975275;28;20494;-55
2022/08/20 09:21:57;;;;;;;0.50;0.30;;;;;;;27.11;59.66;100210.78;4975906;28;20463;-55
2022/08/20 09:24:24;;;;;;;0.50;0.40;;;;;;;26.97;60.00;100219.44;4962702;28;20456;-55
2022/08/20 09:26:50;;;;;;;0.60;0.40;;;;;;;27.35;58.22;100210.22;4975657;28;20457;-54
2022/08/20 09:29:16;;;;;;;0.60;0.47;;;;;;;27.04;59.06;100210.53;4969609;28;20470;-54
2022/08/20 09:31:43;;;;;;;3.17;0.40;;;;;;;27.25;59.59;100214.88;4969018;28;20464;-54
2022/08/20 09:34:10;;;;;;;0.57;0.40;;;;;;;27.12;59.51;100213.34;4974620;28;20458;-53
2022/08/20 09:36:36;;;;;;;0.50;0.30;;;;;;;27.26;58.81;100213.84;4975300;28;20844;-54
2022/08/20 09:39:03;;;;;;;0.50;0.40;;;;;;;27.37;58.05;100216.38;4962136;28;20879;-54
2022/08/20 09:41:30;;;;;;;0.60;0.30;;;;;;;27.38;57.79;100213.50;4975625;28;20472;-54
2022/08/20 09:43:59;;;;;;;0.60;0.40;;;;;;;27.61;57.06;100205.72;4968810;28;20454;-54
2022/08/20 09:46:26;;;;;;;0.70;0.40;;;;;;;27.67;56.65;100199.66;4969652;28;20458;-54
2022/08/20 09:48:53;;;;;;;0.50;0.30;;;;;;;28.02;56.19;100198.78;4975331;28;20498;-54
2022/08/20 09:51:20;;;;;;;0.60;0.30;;;;;;;27.54;55.65;100201.03;4962495;28;20471;-53
2022/08/20 09:53:47;;;;;;;0.57;0.43;;;;;;;27.84;55.14;100203.41;4975119;28;20862;-54
2022/08/20 09:56:14;;;;;;;0.80;0.30;;;;;;;27.42;56.44;100193.06;4974088;28;20956;-54
2022/08/20 09:58:50;;;;;;;0.80;0.30;;;;;;;27.96;55.24;100193.97;4963413;28;20501;-54
2022/08/20 10:01:18;;;;;;;0.60;0.40;;;;;;;28.12;53.83;100190.50;4988385;28;20450;-54
2022/08/20 10:03:47;;;;;;;0.60;0.30;;;;;;;28.32;52.61;100182.97;4965420;28;20451;-54
2022/08/20 10:06:16;;;;;;;0.90;0.40;;;;;;;28.51;53.15;100182.78;4972350;28;21035;-54
2022/08/20 10:08:43;;;;;;;0.60;0.40;;;;;;;28.44;53.14;100189.91;4973705;28;20445;-54
2022/08/20 10:11:09;;;;;;;0.50;0.40;;;;;;;28.76;52.73;100182.88;4962164;28;20457;-54
2022/08/20 10:13:36;;;;;;;0.50;0.30;;;;;;;28.46;52.81;100178.78;4976009;28;20867;-54
2022/08/20 10:16:03;;;;;;;0.50;0.30;;;;;;;28.36;52.84;100181.63;4970730;28;20433;-54
2022/08/20 10:18:29;;;;;;;0.60;0.40;;;;;;;28.38;53.00;100173.28;4966980;28;20497;-54
2022/08/20 10:20:55;;;;;;;0.50;0.30;;;;;;;28.46;52.83;100176.91;4974576;28;20450;-53
2022/08/20 10:23:22;;;;;;;0.50;0.30;;;;;;;28.47;52.86;100172.31;4963230;28;20460;-53
2022/08/20 10:25:48;;;;;;;0.50;0.30;;;;;;;28.33;53.12;100174.59;4973380;28;20450;-53
2022/08/20 10:28:15;;;;;;;0.50;0.40;;;;;;;28.57;52.15;100171.16;4974769;28;20847;-53
2022/08/20 10:30:43;;;;;;;1.83;0.50;;;;;;;28.36;52.58;100178.88;4961669;28;20453;-54
2022/08/20 10:33:10;;;;;;;0.50;0.30;;;;;;;28.51;52.09;100174.56;4974481;28;20451;-53
2022/08/20 10:35:36;;;;;;;0.50;0.30;;;;;;;28.03;53.88;100178.63;4974461;28;20450;-53
2022/08/20 10:38:03;;;;;;;4.30;0.40;;;;;;;27.95;54.29;100174.97;4962158;28;20493;-53
2022/08/20 10:40:29;;;;;;;0.50;0.30;;;;;;;27.83;53.55;100171.66;4973883;28;20489;-54
2022/08/20 10:42:55;;;;;;;0.50;0.30;;;;;;;28.50;52.07;100174.69;4974605;28;20462;-52
2022/08/20 10:45:24;;;;;;;0.50;0.40;;;;;;;28.74;52.24;100166.63;4961500;28;20455;-53
2022/08/20 10:47:51;;;;;;;0.60;0.30;;;;;;;28.66;50.33;100169.34;4973931;28;20479;-54
2022/08/20 10:50:18;;;;;;;3.20;0.70;;;;;;;28.62;50.94;100170.66;4967847;28;20524;-53
2022/08/20 10:52:45;;;;;;;0.60;0.40;;;;;;;29.02;50.95;100160.97;4968183;28;20458;-54
2022/08/20 10:55:12;;;;;;;0.50;0.30;;;;;;;28.58;50.23;100155.63;4974207;28;20461;-54
2022/08/20 10:57:40;;;;;;;0.50;0.30;;;;;;;28.85;49.59;100166.34;4960790;28;20844;-52
2022/08/20 11:00:12;;;;;;;0.63;0.50;;;;;;;29.06;48.20;100167.84;4980973;28;20504;-52
2022/08/20 11:02:39;;;;;;;1.73;0.33;;;;;;;29.26;46.45;100166.53;4978363;28;20462;-54
2022/08/20 11:05:07;;;;;;;0.90;0.40;;;;;;;29.82;46.92;100161.31;4962420;28;20478;-54
2022/08/20 11:07:37;;;;;;;0.60;0.40;;;;;;;29.91;44.89;100168.53;4973700;28;20478;-53
2022/08/20 11:10:24;;;;;;;0.50;0.30;;;;;;;29.01;45.12;100160.09;4963313;28;20451;-53
2022/08/20 11:12:51;;;;;;;0.60;0.40;;;;;;;28.79;45.34;100149.75;4972157;28;20928;-53
2022/08/20 11:15:17;;;;;;;0.50;0.40;;;;;;;29.11;43.91;100160.84;4973940;28;20425;-53
2022/08/20 11:17:44;;;;;;;0.60;0.40;;;;;;;29.75;40.36;100163.91;4960766;28;20464;-53
2022/08/20 11:20:13;;;;;;;0.60;0.40;;;;;;;29.46;38.92;100159.72;4973784;28;20592;-53
2022/08/20 11:22:39;;;;;;;0.50;0.30;;;;;;;29.94;37.93;100159.94;4968313;28;20444;-53
2022/08/20 11:25:07;;;;;;;0.60;0.60;;;;;;;30.00;39.13;100162.00;4966351;28;20429;-53
2022/08/20 11:27:37;;;;;;;0.60;0.50;;;;;;;29.83;37.64;100157.56;4973694;28;20481;-53
2022/08/20 11:30:07;;;;;;;0.73;0.50;;;;;;;30.41;37.27;100160.09;4961313;28;20486;-53
2022/08/20 11:32:33;;;;;;;0.60;0.50;;;;;;;30.49;38.09;100145.50;4960692;28;21014;-53
2022/08/20 11:34:59;;;;;;;0.80;0.70;;;;;;;30.21;38.22;100159.63;4964640;28;20446;-53
2022/08/20 11:37:39;;;;;;;3.37;0.40;;;;;;;30.29;38.80;100154.13;4962466;28;20470;-53
2022/08/20 11:40:07;;;;;;;1.90;0.63;;;;;;;30.59;37.58;100151.66;4960334;28;20487;-53
2022/08/20 11:42:34;;;;;;;3.90;0.73;;;;;;;30.75;37.62;100148.88;4973923;28;20454;-53